Time;durP1;ratioP1;P1;durP2;ratioP2;P2;SDS_P1;SDS_P2;PMS_P1;PMS_P2;Temp;Humidity;BMP_temperature;BMP_pressure;BME280_temperature;BME280_humidity;BME280_pressure;Samples;Min_cycle;Max_cycle;Signal;HPM_P1;HPM_P2
2022/05/29 00:01:57;;;;;;;0.35;0.35;;;;;;;12.14;100.00;100593.22;7392505;19;20388;-88
2022/05/29 00:04:24;;;;;;;0.75;0.30;;;;;;;12.12;100.00;100590.91;7394659;19;20015;-88
2022/05/29 00:06:53;;;;;;;0.30;0.30;;;;;;;12.08;100.00;100587.47;7392669;19;20011;-86
2022/05/29 00:09:30;;;;;;;0.40;0.40;;;;;;;12.04;100.00;100586.88;7394726;19;20018;-88
2022/05/29 00:11:58;;;;;;;0.30;0.30;;;;;;;12.00;100.00;100580.66;7394482;19;20031;-88
2022/05/29 00:14:24;;;;;;;0.82;0.60;;;;;;;11.90;100.00;100576.34;7394354;19;20030;-88
2022/05/29 00:16:50;;;;;;;0.15;0.08;;;;;;;11.89;100.00;100579.63;7390650;19;20018;-88
2022/05/29 00:19:17;;;;;;;1.02;0.50;;;;;;;11.80;100.00;100582.41;7392773;19;20042;-87
2022/05/29 00:21:43;;;;;;;0.85;0.50;;;;;;;11.78;100.00;100580.06;7390835;19;20404;-87
2022/05/29 00:24:09;;;;;;;0.55;0.30;;;;;;;11.62;100.00;100577.56;7393989;19;20029;-87
2022/05/29 00:26:35;;;;;;;0.40;0.40;;;;;;;11.55;100.00;100575.09;7393638;19;20014;-88
2022/05/29 00:29:02;;;;;;;0.32;0.30;;;;;;;11.48;100.00;100580.22;7393846;19;20026;-87
2022/05/29 00:31:28;;;;;;;6.90;0.65;;;;;;;11.40;100.00;100572.16;7393554;19;20010;-87
2022/05/29 00:33:54;;;;;;;0.40;0.40;;;;;;;11.30;100.00;100569.81;7394946;19;20322;-88
2022/05/29 00:36:21;;;;;;;0.63;0.35;;;;;;;11.23;100.00;100567.31;7394161;19;20022;-88
2022/05/29 00:38:48;;;;;;;0.90;0.45;;;;;;;11.16;100.00;100567.63;7390196;19;20023;-88
2022/05/29 00:41:23;;;;;;;10.30;0.50;;;;;;;11.05;100.00;100572.84;7391790;19;20015;-88
2022/05/29 00:44:10;;;;;;;0.50;0.50;;;;;;;10.90;100.00;100571.88;7391736;19;20714;-87
2022/05/29 00:46:36;;;;;;;1.52;0.38;;;;;;;10.85;100.00;100569.72;7393776;19;20018;-88
2022/05/29 00:49:07;;;;;;;0.75;0.75;;;;;;;10.72;100.00;100578.19;7396029;19;20011;-88
2022/05/29 00:51:37;;;;;;;0.10;0.10;;;;;;;10.74;100.00;100580.53;7400833;19;20023;-89
2022/05/29 00:54:05;;;;;;;0.73;0.40;;;;;;;10.71;100.00;100587.00;7400047;19;20468;-89
2022/05/29 00:56:34;;;;;;;0.38;0.38;;;;;;;10.60;100.00;100591.00;7395368;19;20692;-89
2022/05/29 00:59:01;;;;;;;0.43;0.40;;;;;;;10.72;100.00;100588.56;7395816;19;20074;-89
2022/05/29 01:01:28;;;;;;;0.25;0.25;;;;;;;10.88;100.00;100591.09;7395422;19;20365;-89
2022/05/29 01:03:55;;;;;;;0.50;0.50;;;;;;;10.98;100.00;100584.31;7396880;19;20022;-89
2022/05/29 01:06:22;;;;;;;0.22;0.22;;;;;;;11.10;100.00;100575.03;7399814;19;20045;-89
2022/05/29 01:08:49;;;;;;;0.60;0.50;;;;;;;11.24;100.00;100585.63;7397550;19;20024;-89
2022/05/29 01:11:31;;;;;;;9.82;0.63;;;;;;;11.34;100.00;100578.81;7398344;19;20472;-89
2022/05/29 01:14:19;;;;;;;0.40;0.40;;;;;;;11.37;100.00;100572.28;7397478;19;20013;-89
2022/05/29 01:17:13;;;;;;;0.73;0.73;;;;;;;11.46;100.00;100563.94;7395951;19;20029;-88
2022/05/29 01:20:06;;;;;;;0.60;0.60;;;;;;;11.59;100.00;100566.56;7395725;19;20023;-89
2022/05/29 01:22:50;;;;;;;1.25;0.55;;;;;;;11.53;100.00;100558.03;7394097;19;20019;-89
2022/05/29 01:25:38;;;;;;;0.52;0.52;;;;;;;11.53;100.00;100557.25;7397819;19;20094;-88
2022/05/29 01:28:07;;;;;;;0.50;0.50;;;;;;;11.57;100.00;100553.09;7399533;19;20011;-89
2022/05/29 01:30:47;;;;;;;0.45;0.40;;;;;;;11.59;100.00;100550.59;7399220;19;20010;-89
2022/05/29 01:33:22;;;;;;;0.30;0.28;;;;;;;11.65;100.00;100554.31;7399852;19;20078;-89
2022/05/29 01:36:03;;;;;;;0.30;0.30;;;;;;;11.56;100.00;100553.56;7394866;19;20031;-89
2022/05/29 01:38:41;;;;;;;0.68;0.68;;;;;;;11.56;100.00;100553.56;7400464;19;20011;-89
2022/05/29 01:41:33;;;;;;;0.68;0.55;;;;;;;11.59;100.00;100556.19;7396234;19;20022;-88
2022/05/29 01:44:11;;;;;;;0.50;0.50;;;;;;;11.55;100.00;100550.00;7396746;19;20015;-89
2022/05/29 01:46:37;;;;;;;0.73;0.40;;;;;;;11.50;100.00;100545.03;7400146;19;20479;-93
2022/05/29 01:49:16;;;;;;;1.75;0.85;;;;;;;11.43;100.00;100539.78;7400176;19;20014;-94
2022/05/29 01:51:52;;;;;;;0.70;0.70;;;;;;;11.41;100.00;100545.78;7397621;19;20038;-89
2022/05/29 01:54:28;;;;;;;0.95;0.55;;;;;;;11.43;100.00;100545.34;7402223;19;20006;-96
2022/05/29 02:41:32;;;;;;;4.43;0.50;;;;;;;11.72;100.00;100503.81;7354230;19;20014;-78
2022/05/29 03:27:18;;;;;;;0.40;0.25;;;;;;;11.67;100.00;100473.00;7358268;19;20011;-96
2022/05/29 03:29:53;;;;;;;1.92;0.80;;;;;;;11.52;100.00;100478.38;7412854;19;20022;-96
2022/05/29 03:32:36;;;;;;;0.57;0.57;;;;;;;11.33;100.00;100476.84;7402010;19;20014;-95
2022/05/29 03:35:23;;;;;;;0.20;0.20;;;;;;;11.28;100.00;100474.72;7403212;19;20033;-96
2022/05/29 03:37:50;;;;;;;0.80;0.70;;;;;;;11.18;100.00;100471.13;7398371;19;20010;-96
2022/05/29 03:40:17;;;;;;;0.65;0.65;;;;;;;11.11;100.00;100471.44;7397746;19;20022;-96
2022/05/29 03:42:44;;;;;;;0.38;0.38;;;;;;;11.02;100.00;100470.69;7396847;19;20340;-96
2022/05/29 03:45:11;;;;;;;1.77;0.25;;;;;;;11.05;100.00;100478.09;7397386;19;20047;-96
2022/05/29 03:47:38;;;;;;;2.00;0.55;;;;;;;11.04;100.00;100476.56;7395261;19;20019;-96
2022/05/29 03:50:09;;;;;;;0.22;0.22;;;;;;;11.00;100.00;100470.38;7396909;19;20014;-96
2022/05/29 03:52:35;;;;;;;6.63;0.75;;;;;;;10.92;100.00;100472.66;7396135;19;20018;-96
2022/05/29 03:55:03;;;;;;;0.88;0.57;;;;;;;10.94;100.00;100475.75;7394818;19;20010;-96
2022/05/29 03:57:29;;;;;;;0.45;0.25;;;;;;;11.06;100.00;100469.28;7393865;19;20025;-96
2022/05/29 03:59:55;;;;;;;0.50;0.50;;;;;;;11.15;100.00;100465.72;7397424;19;20018;-95
2022/05/29 04:02:22;;;;;;;0.40;0.40;;;;;;;11.14;100.00;100475.31;7393040;19;20014;-96
2022/05/29 04:04:48;;;;;;;0.40;0.40;;;;;;;11.22;100.00;100459.81;7396470;19;20019;-96
2022/05/29 04:07:14;;;;;;;1.17;0.40;;;;;;;11.23;100.00;100453.00;7395736;19;20014;-96
2022/05/29 04:12:25;;;;;;;1.20;0.38;;;;;;;11.27;100.00;100456.41;7394608;19;20018;-96
2022/05/29 04:14:52;;;;;;;0.90;0.32;;;;;;;11.27;100.00;100456.41;7398103;19;20066;-96
2022/05/29 04:17:19;;;;;;;0.43;0.43;;;;;;;11.28;100.00;100452.41;7394702;19;20600;-96
2022/05/29 04:19:46;;;;;;;0.38;0.30;;;;;;;11.30;100.00;100461.06;7394393;19;20019;-94
2022/05/29 04:22:19;;;;;;;0.47;0.47;;;;;;;11.32;100.00;100459.38;7392681;19;20022;-95
2022/05/29 04:24:45;;;;;;;0.35;0.35;;;;;;;11.36;100.00;100464.78;7405822;19;20018;-94
2022/05/29 04:27:14;;;;;;;0.55;0.55;;;;;;;11.45;100.00;100450.84;7402976;19;20078;-95
2022/05/29 04:29:41;;;;;;;0.38;0.38;;;;;;;11.51;100.00;100446.16;7402094;19;20037;-95
2022/05/29 04:34:57;;;;;;;0.73;0.40;;;;;;;11.61;100.00;100447.69;7403007;19;20030;-96
2022/05/29 04:37:24;;;;;;;0.10;0.10;;;;;;;11.66;100.00;100449.06;7402872;19;20019;-96
2022/05/29 04:39:51;;;;;;;0.80;0.32;;;;;;;11.67;100.00;100451.44;7402060;19;20033;-96
2022/05/29 04:42:17;;;;;;;4.15;0.65;;;;;;;11.69;100.00;100448.97;7400965;19;20086;-96
2022/05/29 04:44:43;;;;;;;0.40;0.32;;;;;;;11.65;100.00;100451.09;7404886;19;20328;-95
2022/05/29 04:47:09;;;;;;;1.33;0.28;;;;;;;11.69;100.00;100448.97;7401061;19;20014;-96
2022/05/29 04:49:39;;;;;;;0.25;0.20;;;;;;;11.76;100.00;100448.59;7401672;19;20441;-96
2022/05/29 04:52:06;;;;;;;0.40;0.40;;;;;;;11.80;100.00;100442.88;7403365;19;20019;-96
2022/05/29 04:54:34;;;;;;;7.03;0.68;;;;;;;11.79;100.00;100441.31;7404191;19;20018;-96
2022/05/29 04:57:01;;;;;;;0.85;0.55;;;;;;;11.83;100.00;100447.50;7406263;19;20011;-96
2022/05/29 04:59:27;;;;;;;0.30;0.30;;;;;;;11.89;100.00;100440.81;7408602;19;20087;-96
2022/05/29 05:01:57;;;;;;;0.17;0.17;;;;;;;11.97;100.00;100425.31;7412870;19;20018;-96
2022/05/29 05:04:24;;;;;;;0.57;0.45;;;;;;;12.07;100.00;100437.19;7414882;19;20006;-96
2022/05/29 05:06:54;;;;;;;0.73;0.68;;;;;;;12.08;100.00;100424.78;7415496;19;20018;-96
2022/05/29 05:09:20;;;;;;;0.65;0.60;;;;;;;12.21;100.00;100432.94;7412509;19;20019;-96
2022/05/29 05:11:46;;;;;;;0.82;0.40;;;;;;;12.28;100.00;100421.44;7421368;19;20037;-96
2022/05/29 05:14:12;;;;;;;0.45;0.40;;;;;;;12.32;100.00;100430.41;7419584;19;20010;-96
2022/05/29 05:16:38;;;;;;;1.13;0.28;;;;;;;12.38;100.00;100431.31;7418706;19;20384;-96
2022/05/29 05:19:04;;;;;;;1.55;0.85;;;;;;;12.39;100.00;100438.44;7422965;19;20064;-96
2022/05/29 05:21:31;;;;;;;0.40;0.40;;;;;;;12.43;100.00;100427.88;7425903;19;20031;-96
2022/05/29 05:27:07;;;;;;;0.13;0.13;;;;;;;12.53;100.00;100423.78;7431560;19;20006;-96
2022/05/29 05:38:44;;;;;;;1.05;0.55;;;;;;;12.73;100.00;100429.53;7384395;19;20030;-96
2022/05/29 05:41:12;;;;;;;6.47;0.88;;;;;;;12.79;100.00;100427.63;7412795;19;20025;-96
2022/05/29 05:46:15;;;;;;;4.93;1.17;;;;;;;12.80;100.00;100429.16;7353683;19;20034;-96
2022/05/29 05:48:44;;;;;;;10.30;1.20;;;;;;;12.83;100.00;100433.81;7416327;19;20007;-96
2022/05/29 05:53:51;;;;;;;0.50;0.50;;;;;;;12.81;100.00;100425.91;7426439;19;20007;-96
2022/05/29 06:21:38;;;;;;;0.98;0.73;;;;;;;12.87;100.00;100420.41;7335338;19;20010;-94
2022/05/29 06:24:04;;;;;;;0.57;0.28;;;;;;;12.93;100.00;100426.88;7397672;19;20078;-93
2022/05/29 06:26:30;;;;;;;0.43;0.43;;;;;;;12.94;100.00;100434.03;7399141;19;20014;-91
2022/05/29 06:28:57;;;;;;;0.32;0.32;;;;;;;12.96;100.00;100425.94;7401750;19;20018;-94
2022/05/29 06:31:23;;;;;;;0.40;0.40;;;;;;;13.08;100.00;100427.72;7402828;19;20103;-95
2022/05/29 06:33:50;;;;;;;0.45;0.35;;;;;;;13.17;100.00;100429.69;7401952;19;20487;-94
2022/05/29 06:36:20;;;;;;;0.63;0.30;;;;;;;13.20;100.00;100423.91;7396664;19;20775;-96
2022/05/29 06:38:47;;;;;;;0.60;0.30;;;;;;;13.34;100.00;100423.16;7398934;19;20357;-95
2022/05/29 06:41:14;;;;;;;18.20;0.82;;;;;;;13.46;100.00;100418.53;7395305;19;20037;-94
2022/05/29 06:43:41;;;;;;;3.85;0.55;;;;;;;13.58;100.00;100426.63;7399997;19;20015;-95
2022/05/29 06:46:08;;;;;;;3.60;0.52;;;;;;;13.79;100.00;100415.53;7397056;19;20018;-94
2022/05/29 06:48:37;;;;;;;0.93;0.52;;;;;;;13.87;100.00;100420.25;7399363;19;20010;-94
2022/05/29 06:51:09;;;;;;;0.40;0.40;;;;;;;13.95;100.00;100427.00;7397674;19;20007;-96
2022/05/29 06:53:36;;;;;;;2.65;0.50;;;;;;;14.03;100.00;100416.19;7399048;19;20348;-95
2022/05/29 06:56:03;;;;;;;0.20;0.20;;;;;;;14.22;100.00;100412.66;7397235;19;20015;-95
2022/05/29 06:58:30;;;;;;;1.27;0.40;;;;;;;14.34;100.00;100419.22;7396480;19;20738;-93
2022/05/29 07:09:10;;;;;;;0.50;0.43;;;;;;;14.95;100.00;100411.63;7398337;19;20019;-94
2022/05/29 07:11:40;;;;;;;0.95;0.10;;;;;;;15.05;100.00;100421.44;7399872;19;20021;-94
2022/05/29 07:14:08;;;;;;;0.20;0.20;;;;;;;15.04;100.00;100415.06;7400339;19;20022;-93
2022/05/29 07:16:35;;;;;;;1.90;1.02;;;;;;;15.02;100.00;100422.41;7394070;19;20025;-93
2022/05/29 07:19:02;;;;;;;1.48;0.30;;;;;;;14.97;100.00;100429.50;7395325;19;20010;-91
2022/05/29 07:21:30;;;;;;;0.43;0.40;;;;;;;15.08;100.00;100420.44;7396920;19;20047;-91
2022/05/29 07:23:57;;;;;;;0.80;0.40;;;;;;;15.13;100.00;100422.53;7398531;19;20018;-93
2022/05/29 07:26:23;;;;;;;0.25;0.25;;;;;;;15.18;100.00;100419.03;7400310;19;20041;-93
2022/05/29 07:28:49;;;;;;;0.90;0.35;;;;;;;15.31;100.00;100429.88;7398086;19;20474;-93
2022/05/29 07:31:15;;;;;;;2.28;1.15;;;;;;;15.34;100.00;100426.06;7396957;19;20018;-92
2022/05/29 07:33:41;;;;;;;2.00;0.57;;;;;;;15.33;100.00;100424.53;7398307;19;20082;-91
2022/05/29 07:36:10;;;;;;;2.65;0.60;;;;;;;15.23;100.00;100425.94;7399124;19;20014;-93
2022/05/29 07:38:37;;;;;;;0.77;0.70;;;;;;;15.09;100.00;100416.38;7395953;19;20033;-92
2022/05/29 07:43:18;;;;;;;0.63;0.30;;;;;;;14.97;100.00;100421.09;7394633;19;20092;-92
2022/05/29 07:43:53;;;;;;;0.50;0.40;;;;;;;14.89;100.00;100422.78;7396799;19;20015;-92
2022/05/29 07:46:20;;;;;;;5.43;1.05;;;;;;;14.86;100.00;100420.94;7400075;19;20032;-93
2022/05/29 07:48:47;;;;;;;5.07;0.50;;;;;;;14.83;100.00;100423.97;7396944;19;20018;-93
2022/05/29 07:51:13;;;;;;;3.30;0.80;;;;;;;14.99;100.00;100418.56;7395535;19;20018;-93
2022/05/29 07:53:40;;;;;;;1.00;0.47;;;;;;;15.15;100.00;100415.19;7396963;19;20029;-92
2022/05/29 07:56:07;;;;;;;1.60;0.70;;;;;;;15.39;100.00;100411.34;7393698;19;20029;-93
2022/05/29 07:58:33;;;;;;;11.40;0.82;;;;;;;15.54;100.00;100410.00;7393822;19;20022;-92
2022/05/29 08:01:01;;;;;;;3.10;0.43;;;;;;;15.66;100.00;100402.41;7393586;19;20006;-92
2022/05/29 08:03:29;;;;;;;7.32;0.90;;;;;;;15.83;100.00;100403.34;7395703;19;20035;-92
2022/05/29 08:05:56;;;;;;;0.57;0.30;;;;;;;15.99;100.00;100402.69;7395864;19;20015;-92
2022/05/29 08:08:23;;;;;;;0.40;0.40;;;;;;;16.00;100.00;100403.47;7395659;19;20018;-94
2022/05/29 08:10:49;;;;;;;0.30;0.20;;;;;;;16.03;100.00;100408.84;7396185;19;20014;-93
2022/05/29 08:13:15;;;;;;;0.40;0.38;;;;;;;15.84;100.00;100413.31;7396292;19;20025;-93
2022/05/29 08:15:42;;;;;;;4.35;0.45;;;;;;;15.63;100.00;100411.84;7393082;19;20035;-93
2022/05/29 08:18:09;;;;;;;0.35;0.35;;;;;;;15.43;100.00;100406.25;7393572;19;20029;-94
2022/05/29 08:20:39;;;;;;;0.30;0.30;;;;;;;15.37;100.00;100414.66;7395674;19;20014;-95
2022/05/29 08:23:06;;;;;;;1.48;0.15;;;;;;;15.31;100.00;100399.00;7396916;19;20022;-95
2022/05/29 08:31:03;;;;;;;2.47;0.80;;;;;;;15.23;100.00;100403.50;7395467;19;20015;-92
2022/05/29 08:33:32;;;;;;;0.95;0.40;;;;;;;15.19;100.00;100401.69;7393678;19;20013;-93
2022/05/29 08:36:02;;;;;;;2.33;0.38;;;;;;;15.17;100.00;100407.03;7392872;19;20011;-93
2022/05/29 08:38:30;;;;;;;0.75;0.40;;;;;;;15.28;100.00;100406.38;7391917;19;20187;-92
2022/05/29 08:41:16;;;;;;;0.32;0.32;;;;;;;15.25;100.00;100400.97;7392157;19;20043;-92
2022/05/29 08:44:06;;;;;;;0.10;0.10;;;;;;;15.18;100.00;100397.34;7396234;19;20024;-93
2022/05/29 08:46:44;;;;;;;0.52;0.13;;;;;;;15.08;100.00;100398.78;7393320;19;20014;-93
2022/05/29 08:49:16;;;;;;;1.38;0.65;;;;;;;15.02;100.00;100399.97;7397564;19;20018;-93
2022/05/29 08:52:05;;;;;;;0.43;0.43;;;;;;;14.92;100.00;100402.16;7391496;19;20030;-92
2022/05/29 08:55:08;;;;;;;0.20;0.20;;;;;;;14.87;100.00;100404.91;7397120;19;20022;-92
2022/05/29 08:57:54;;;;;;;0.35;0.20;;;;;;;14.82;100.00;100402.78;7374043;19;20039;-95
2022/05/29 09:00:44;;;;;;;0.82;0.32;;;;;;;14.74;100.00;100391.25;7391755;19;20007;-95
2022/05/29 09:03:26;;;;;;;0.10;0.10;;;;;;;14.71;100.00;100389.41;7393469;19;20025;-93
2022/05/29 09:05:56;;;;;;;;;;;;;;;14.65;100.00;100396.97;7394096;19;20007;-94
2022/05/29 09:08:28;;;;;;;0.30;0.30;;;;;;;14.62;100.00;100388.78;7393537;19;19926;-93
2022/05/29 09:11:04;;;;;;;4.72;0.43;;;;;;;14.55;100.00;100389.97;7405610;19;20390;-93
2022/05/29 09:13:43;;;;;;;3.50;0.45;;;;;;;14.56;100.00;100383.09;7401076;19;20021;-92
2022/05/29 09:16:14;;;;;;;0.38;0.30;;;;;;;14.51;100.00;100386.59;7398359;19;20119;-93
2022/05/29 09:18:48;;;;;;;2.10;0.55;;;;;;;14.45;100.00;100385.75;7399376;19;20014;-92
2022/05/29 09:21:18;;;;;;;1.77;1.35;;;;;;;14.48;100.00;100381.97;7399157;19;20038;-93
2022/05/29 09:24:10;;;;;;;0.30;0.30;;;;;;;14.60;100.00;100380.06;7399736;19;20040;-93
2022/05/29 09:26:38;;;;;;;2.30;0.40;;;;;;;14.66;100.00;100383.75;7400042;19;20010;-94
2022/05/29 09:29:06;;;;;;;0.50;0.35;;;;;;;14.75;100.00;100375.94;7399040;19;20014;-95
2022/05/29 09:31:33;;;;;;;0.30;0.30;;;;;;;14.87;100.00;100374.81;7401888;19;20019;-93
2022/05/29 09:33:59;;;;;;;0.10;0.10;;;;;;;15.08;100.00;100376.31;7402052;19;20021;-94
2022/05/29 09:39:59;;;;;;;0.10;0.10;;;;;;;15.43;100.00;100367.78;7348117;19;21145;-96
2022/05/29 09:45:25;;;;;;;0.70;0.60;;;;;;;15.31;100.00;100360.47;7382877;19;20022;31
2022/05/29 09:50:39;;;;;;;0.32;0.32;;;;;;;15.26;100.00;100368.84;7410340;19;20401;-96
2022/05/29 09:53:17;;;;;;;0.15;0.15;;;;;;;15.31;100.00;100362.53;7415031;19;20010;-96
2022/05/29 09:56:08;;;;;;;0.10;0.10;;;;;;;15.60;100.00;100353.88;7414999;19;20019;-96
2022/05/29 09:58:49;;;;;;;0.73;0.43;;;;;;;15.74;100.00;100359.34;7419828;19;20014;-96
2022/05/29 10:01:36;;;;;;;0.40;0.20;;;;;;;15.79;100.00;100366.28;7419955;19;20011;-96
2022/05/29 10:04:11;;;;;;;0.20;0.20;;;;;;;15.83;100.00;100366.84;7376517;19;20018;-96
2022/05/29 10:06:43;;;;;;;0.10;0.10;;;;;;;15.93;100.00;100359.75;7403682;19;20019;-96
2022/05/29 10:09:12;;;;;;;0.98;0.52;;;;;;;16.11;100.00;100353.75;7404121;19;20106;-96
2022/05/29 10:11:45;;;;;;;0.98;0.30;;;;;;;16.36;100.00;100357.72;7419680;19;20014;-96
2022/05/29 10:41:39;;;;;;;0.20;0.00;;;;;;;17.59;100.00;100340.69;7350050;19;20294;-96
2022/05/29 10:44:08;;;;;;;8.63;0.80;;;;;;;17.44;100.00;100331.69;7404698;19;20028;-96
2022/05/29 10:47:03;;;;;;;0.10;0.00;;;;;;;17.67;100.00;100336.06;7406304;19;20042;-96
2022/05/29 10:49:34;;;;;;;0.47;0.47;;;;;;;17.91;100.00;100327.84;7401675;19;20105;-95
2022/05/29 10:52:09;;;;;;;0.25;0.22;;;;;;;17.73;100.00;100336.88;7406869;19;20007;-96
2022/05/29 10:55:21;;;;;;;0.10;0.08;;;;;;;17.60;100.00;100335.84;7404453;19;20571;-94
2022/05/29 10:58:06;;;;;;;0.17;0.10;;;;;;;17.78;100.00;100327.63;7397829;19;20352;-93
2022/05/29 11:00:54;;;;;;;0.30;0.20;;;;;;;18.43;100.00;100319.50;7398450;19;20017;-95
2022/05/29 11:03:41;;;;;;;0.10;0.10;;;;;;;19.12;100.00;100320.22;7399566;19;20011;-96
2022/05/29 11:06:45;;;;;;;0.10;0.00;;;;;;;18.89;97.44;100322.41;7399106;19;20026;-94
2022/05/29 11:12:33;;;;;;;0.10;0.10;;;;;;;17.86;99.89;100313.78;7351072;19;20007;-95
2022/05/29 11:15:12;;;;;;;0.10;0.10;;;;;;;17.49;100.00;100314.06;7413405;19;20038;-96
2022/05/29 11:32:47;;;;;;;1.00;0.30;;;;;;;16.76;100.00;100295.53;7320569;19;20064;31
2022/05/29 11:37:57;;;;;;;0.10;0.10;;;;;;;16.93;100.00;100287.13;7402048;19;20914;-96
2022/05/29 11:40:29;;;;;;;0.20;0.10;;;;;;;17.02;100.00;100281.28;7401915;19;21164;-95
2022/05/29 11:55:15;;;;;;;0.28;0.20;;;;;;;17.90;100.00;100266.38;7362713;19;20098;-90
2022/05/29 11:57:59;;;;;;;0.10;0.00;;;;;;;17.78;100.00;100265.63;7392442;19;20010;-84
2022/05/29 12:00:31;;;;;;;0.10;0.10;;;;;;;17.87;100.00;100256.13;7393181;19;20047;-91
2022/05/29 12:03:22;;;;;;;0.40;0.10;;;;;;;18.05;100.00;100266.84;7393959;19;20130;-90
2022/05/29 12:05:48;;;;;;;;;;;;;;;18.15;100.00;100254.00;7395360;19;20074;-87
2022/05/29 12:08:19;;;;;;;0.40;0.10;;;;;;;18.24;100.00;100264.22;7395180;19;20235;-87
2022/05/29 12:10:55;;;;;;;0.22;0.10;;;;;;;18.45;100.00;100257.00;7394000;19;20378;-85
2022/05/29 12:13:27;;;;;;;0.47;0.13;;;;;;;18.75;100.00;100249.38;7390866;19;20491;-87
2022/05/29 12:15:59;;;;;;;0.20;0.20;;;;;;;18.99;100.00;100251.53;7389897;19;20033;-86
2022/05/29 12:18:36;;;;;;;1.75;0.50;;;;;;;18.83;100.00;100256.00;7391371;19;20007;-85
2022/05/29 12:21:05;;;;;;;2.92;0.40;;;;;;;18.33;100.00;100258.28;7390852;19;20027;-87
2022/05/29 12:23:37;;;;;;;0.35;0.10;;;;;;;18.45;100.00;100249.28;7392265;19;20030;-85
2022/05/29 12:26:07;;;;;;;0.20;0.13;;;;;;;18.35;100.00;100244.44;7391736;19;20382;-85
2022/05/29 12:28:38;;;;;;;0.05;0.05;;;;;;;18.18;100.00;100236.84;7390660;19;20452;-85
2022/05/29 12:31:12;;;;;;;0.57;0.10;;;;;;;18.13;100.00;100237.63;7389074;19;20039;-84
2022/05/29 12:33:43;;;;;;;0.65;0.10;;;;;;;18.44;100.00;100230.03;7387357;19;20027;-84
2022/05/29 12:36:19;;;;;;;0.70;0.40;;;;;;;18.65;100.00;100231.22;7387876;19;20033;-84
2022/05/29 12:39:17;;;;;;;0.10;0.10;;;;;;;18.88;100.00;100230.56;7389088;19;20015;-90
2022/05/29 12:41:55;;;;;;;0.10;0.00;;;;;;;19.04;100.00;100219.66;7393018;19;20046;-88
2022/05/29 12:44:43;;;;;;;0.65;0.20;;;;;;;19.00;100.00;100217.13;7395760;19;20092;-92
2022/05/29 12:47:26;;;;;;;0.20;0.15;;;;;;;19.58;100.00;100221.25;7403109;19;20015;-92
2022/05/29 12:50:04;;;;;;;0.10;0.10;;;;;;;19.73;100.00;100211.63;7401997;19;20014;-91
2022/05/29 12:52:45;;;;;;;0.20;0.10;;;;;;;19.90;100.00;100203.72;7402613;19;20020;-92
2022/05/29 12:55:37;;;;;;;0.10;0.10;;;;;;;19.70;100.00;100207.00;7401146;19;20038;-94
2022/05/29 12:58:34;;;;;;;0.10;0.10;;;;;;;19.29;100.00;100212.78;7401239;19;20022;-91
2022/05/29 13:01:21;;;;;;;0.20;0.00;;;;;;;19.53;100.00;100202.28;7401552;19;20011;-91
2022/05/29 13:03:59;;;;;;;0.10;0.00;;;;;;;20.08;100.00;100202.97;7403004;19;20022;-91
2022/05/29 13:07:06;;;;;;;0.10;0.10;;;;;;;19.74;94.22;100201.81;7402221;19;20010;-90
2022/05/29 13:09:44;;;;;;;4.95;0.30;;;;;;;19.36;96.02;100196.03;7401552;19;20329;-90
2022/05/29 13:12:16;;;;;;;0.20;0.10;;;;;;;19.06;99.51;100200.16;7403294;19;20463;-89
2022/05/29 13:14:56;;;;;;;0.40;0.10;;;;;;;18.79;98.20;100199.09;7404042;19;20031;-91
2022/05/29 13:17:26;;;;;;;0.27;0.20;;;;;;;18.65;100.00;100197.38;7401723;19;20334;-90
2022/05/29 13:20:01;;;;;;;0.10;0.10;;;;;;;18.74;100.00;100191.41;7400971;19;20247;-89
2022/05/29 13:22:48;;;;;;;0.10;0.10;;;;;;;19.54;99.99;100184.06;7400305;19;20026;-89
2022/05/29 13:25:16;;;;;;;2.70;0.30;;;;;;;19.99;96.79;100175.09;7399653;19;20031;-89
2022/05/29 13:27:43;;;;;;;1.00;0.20;;;;;;;20.42;93.27;100179.38;7403326;19;20022;-89
2022/05/29 13:30:35;;;;;;;0.45;0.10;;;;;;;20.92;90.84;100172.97;7401871;19;20038;-89
2022/05/29 13:33:42;;;;;;;0.10;0.05;;;;;;;21.54;91.09;100159.28;7398141;19;20002;-88
2022/05/29 13:36:30;;;;;;;0.60;0.10;;;;;;;21.46;88.83;100164.06;7393874;19;20015;-88
2022/05/29 13:38:56;;;;;;;0.30;0.17;;;;;;;20.93;87.62;100156.75;7395172;19;20030;-88
2022/05/29 13:41:50;;;;;;;0.10;0.00;;;;;;;20.27;86.13;100164.94;7396185;19;20043;-89
2022/05/29 13:44:40;;;;;;;0.70;0.20;;;;;;;19.79;86.40;100159.38;7398257;19;20023;-88
2022/05/29 13:47:18;;;;;;;0.30;0.10;;;;;;;19.47;90.14;100156.38;7397812;19;20026;-89
2022/05/29 13:50:11;;;;;;;1.30;0.55;;;;;;;19.35;91.36;100155.00;7397340;19;20360;-86
2022/05/29 13:53:10;;;;;;;0.10;0.00;;;;;;;19.26;95.50;100152.47;7394901;19;20080;-84
2022/05/29 13:55:36;;;;;;;0.08;0.00;;;;;;;19.29;94.35;100145.78;7396848;19;20011;-87
2022/05/29 14:04:01;;;;;;;0.45;0.00;;;;;;;19.33;92.36;100143.44;7400068;19;20010;-88
2022/05/29 14:06:30;;;;;;;0.70;0.10;;;;;;;19.14;92.65;100136.94;7396749;19;20029;-88
2022/05/29 14:09:14;;;;;;;0.68;0.28;;;;;;;18.92;90.51;100139.97;7399344;19;20368;-88
2022/05/29 14:11:43;;;;;;;0.10;0.10;;;;;;;18.61;89.21;100138.41;7399207;19;20078;-92
2022/05/29 14:14:34;;;;;;;1.10;0.82;;;;;;;18.40;94.40;100128.03;7398110;19;20047;-91
2022/05/29 14:17:22;;;;;;;0.85;0.20;;;;;;;18.14;96.39;100129.22;7396018;19;20011;-90
2022/05/29 14:19:59;;;;;;;0.10;0.08;;;;;;;18.40;97.62;100122.38;7398065;19;20019;-91
2022/05/29 14:25:22;;;;;;;3.40;0.30;;;;;;;19.42;85.67;100105.63;7398804;19;20029;-90
2022/05/29 14:28:13;;;;;;;0.82;0.10;;;;;;;19.84;82.72;100095.59;7397855;19;20021;-91
2022/05/29 14:30:42;;;;;;;0.28;0.10;;;;;;;19.76;82.62;100097.50;7399754;19;20015;-91
2022/05/29 14:33:27;;;;;;;0.15;0.00;;;;;;;19.80;83.04;100097.94;7398012;19;20029;-90
2022/05/29 14:36:05;;;;;;;0.13;0.00;;;;;;;19.64;84.57;100106.09;7396738;19;20106;-92
2022/05/29 14:38:50;;;;;;;0.00;0.00;;;;;;;19.68;87.27;100097.34;7395325;19;20482;-90
2022/05/29 14:41:33;;;;;;;0.15;0.10;;;;;;;19.68;88.70;100103.75;7399916;19;20356;-91
2022/05/29 14:44:23;;;;;;;1.00;0.13;;;;;;;19.61;85.87;100093.06;7396030;19;20026;-92
2022/05/29 14:47:04;;;;;;;0.27;0.10;;;;;;;19.43;84.30;100105.06;7397980;19;20014;-94
2022/05/29 14:49:49;;;;;;;;;;;;;;;19.38;82.48;100105.16;7398017;19;20010;-94
2022/05/29 14:52:28;;;;;;;0.08;0.00;;;;;;;18.94;83.61;100100.69;7396459;19;19925;-88
2022/05/29 14:55:02;;;;;;;0.68;0.20;;;;;;;18.79;86.32;100103.13;7392057;19;20074;-84
2022/05/29 14:57:31;;;;;;;0.57;0.20;;;;;;;18.65;88.59;100104.25;7395891;19;20022;-91
2022/05/29 15:00:00;;;;;;;0.10;0.00;;;;;;;18.46;88.75;100103.41;7397171;19;20033;-91
2022/05/29 15:02:32;;;;;;;0.10;0.10;;;;;;;18.17;91.44;100105.59;7398310;19;20034;-91
2022/05/29 15:05:15;;;;;;;9.93;0.43;;;;;;;18.19;89.66;100100.22;7401179;19;20019;-90
2022/05/29 15:10:35;;;;;;;;;;;;;;;19.12;80.95;100085.88;7396833;19;20015;-91
2022/05/29 15:13:08;;;;;;;0.10;0.10;;;;;;;19.36;75.31;100077.41;7398211;19;19926;-90
2022/05/29 15:15:44;;;;;;;1.38;0.10;;;;;;;19.96;77.98;100077.19;7395604;19;20022;-91
2022/05/29 15:18:14;;;;;;;0.10;0.08;;;;;;;20.65;75.96;100077.94;7396035;19;20026;-91
2022/05/29 15:24:09;;;;;;;0.20;0.15;;;;;;;21.37;72.01;100064.56;7398119;19;20011;-92
2022/05/29 15:26:39;;;;;;;0.20;0.10;;;;;;;21.27;69.36;100071.97;7397933;19;20010;-93
2022/05/29 15:29:25;;;;;;;0.00;0.00;;;;;;;20.49;68.85;100061.25;7397355;19;20074;-91
2022/05/29 15:31:52;;;;;;;0.10;0.10;;;;;;;19.74;73.99;100066.16;7401013;19;20093;-92
2022/05/29 15:34:41;;;;;;;0.10;0.00;;;;;;;19.06;77.02;100065.41;7399136;19;20453;-92
2022/05/29 15:37:14;;;;;;;0.10;0.10;;;;;;;18.40;79.08;100077.28;7395452;19;20010;-92
2022/05/29 15:40:05;;;;;;;0.10;0.03;;;;;;;17.87;80.28;100081.44;7393615;19;20010;-93
2022/05/29 15:42:39;;;;;;;;;;;;;;;17.42;83.62;100076.00;7396377;19;20029;-92
2022/05/29 15:45:26;;;;;;;0.10;0.10;;;;;;;17.08;88.16;100079.41;7398578;19;19921;-94